Clear Creek, Nevada
Current Conditions -  °F | °C
As of 12:55 AM on Saturday 29 Nov 2014 (Local Time) from KCXP Reporting Station
Overcast Overcast  
Wind Chill: 42°   Ceiling: 6000
Heat Index: 48°   Visibility: 10mi
Dew Point: 18°   Wind: 15mph
Humidity: 30%   Direction: 220°SW
Pressure: 29.87"   Gusts: 25mph
Location:  39.1386°N, 119.659°W
Report Text: KCXP 290855Z AUTO 22013G22KT 180V260 10SM FEW050 BKN060 OVC090 09/M08 A2987 RMK AO2
Loading
Personal Weather Stations






























Interactive Weather Map New forecast layout! Learn more

10-Day Weather Forecast

Advertisements
Track Severe Weather on mobile